Wetterdaten: Woche 17.04.17 - 23.04.17 (KW16)
Datum Zeit Temp. A. Feuchte A. Luftdruck Regen Wind Richtung Sonnenschein ET UV Solar Taupunkt Windchill Windben Empfang
17.04.2017 00:00 4,3 C 90 % 1018,7 hPa 0,0 l/m 12,8 km/h (3 Bft) W-SW 0,00 h 0,000 mm 0,0 UV-I 0 W/m 2,9 C -0,4 C 19,5 km/h (3 Bft) 96,33 %
17.04.2017 01:00 4,2 C 92 % 1018,7 hPa 0,2 l/m 10,3 km/h (2 Bft) W-SW 0,00 h 0,025 mm 0,0 UV-I 0 W/m 3,0 C 1,0 C 15,1 km/h (3 Bft) 97,59 %
17.04.2017 02:00 4,2 C 94 % 1018,4 hPa 0,2 l/m 9,4 km/h (2 Bft) SW 0,00 h 0,000 mm 0,0 UV-I 0 W/m 3,3 C 1,7 C 15,0 km/h (3 Bft) 97,69 %
17.04.2017 03:00 4,1 C 93 % 1018,0 hPa 0,0 l/m 12,0 km/h (2 Bft) SW 0,00 h 0,000 mm 0,0 UV-I 0 W/m 3,1 C -0,2 C 18,8 km/h (3 Bft) 95,83 %
17.04.2017 04:00 4,1 C 92 % 1017,7 hPa 0,0 l/m 10,0 km/h (2 Bft) SW 0,00 h 0,000 mm 0,0 UV-I 0 W/m 3,0 C 1,1 C 16,3 km/h (3 Bft) 96,45 %
17.04.2017 05:00 4,3 C 93 % 1017,6 hPa 0,2 l/m 11,4 km/h (2 Bft) W-SW 0,00 h 0,000 mm 0,0 UV-I 0 W/m 3,2 C 0,4 C 17,8 km/h (3 Bft) 97,79 %
17.04.2017 06:00 4,4 C 93 % 1017,5 hPa 0,0 l/m 9,5 km/h (2 Bft) SW 0,00 h 0,000 mm 0,0 UV-I 11 W/m 3,3 C 1,8 C 14,9 km/h (3 Bft) 96,33 %
17.04.2017 07:00 4,7 C 92 % 1017,5 hPa 0,2 l/m 9,2 km/h (2 Bft) SW 0,00 h 0,000 mm 0,0 UV-I 33 W/m 3,5 C 2,4 C 14,3 km/h (3 Bft) 95,28 %
17.04.2017 08:00 4,9 C 91 % 1017,4 hPa 0,2 l/m 11,4 km/h (2 Bft) W-SW 0,00 h 0,026 mm 0,0 UV-I 56 W/m 3,5 C 1,1 C 17,8 km/h (3 Bft) 94,62 %
17.04.2017 09:00 5,1 C 90 % 1017,2 hPa 0,0 l/m 14,5 km/h (3 Bft) SW 0,23 h 0,025 mm 1,1 UV-I 220 W/m 3,6 C -0,5 C 22,6 km/h (4 Bft) 96,95 %
17.04.2017 10:00 6,4 C 85 % 1016,7 hPa 0,0 l/m 16,8 km/h (3 Bft) W-SW 0,40 h 0,102 mm 1,3 UV-I 360 W/m 4,1 C -0,1 C 25,9 km/h (4 Bft) 95,31 %
17.04.2017 11:00 7,5 C 80 % 1016,1 hPa 0,0 l/m 17,7 km/h (3 Bft) SW 0,60 h 0,178 mm 2,1 UV-I 492 W/m 4,3 C 1,0 C 26,7 km/h (4 Bft) 94,94 %
17.04.2017 12:00 8,0 C 76 % 1015,3 hPa 0,0 l/m 16,5 km/h (3 Bft) SW 0,60 h 0,254 mm 2,4 UV-I 510 W/m 4,1 C 2,1 C 25,7 km/h (4 Bft) 95,67 %
17.04.2017 13:00 8,8 C 73 % 1014,4 hPa 0,0 l/m 15,0 km/h (3 Bft) SW 0,77 h 0,254 mm 2,5 UV-I 562 W/m 4,3 C 3,7 C 23,5 km/h (4 Bft) 94,52 %
17.04.2017 14:00 10,1 C 69 % 1013,2 hPa 0,0 l/m 13,1 km/h (3 Bft) SW 0,53 h 0,279 mm 2,4 UV-I 507 W/m 4,7 C 6,2 C 21,4 km/h (4 Bft) 99,45 %
17.04.2017 15:00 10,4 C 65 % 1011,9 hPa 0,0 l/m 17,1 km/h (3 Bft) SW 0,20 h 0,305 mm 1,2 UV-I 272 W/m 4,2 C 5,0 C 27,3 km/h (4 Bft) 98,23 %
17.04.2017 16:00 8,3 C 79 % 1011,7 hPa 0,8 l/m 18,9 km/h (3 Bft) W-SW 0,00 h 0,178 mm 0,2 UV-I 62 W/m 4,9 C 1,9 C 29,2 km/h (5 Bft) 96,57 %
17.04.2017 17:00 7,3 C 87 % 1011,0 hPa 1,0 l/m 14,3 km/h (3 Bft) S-SW 0,00 h 0,076 mm 0,0 UV-I 70 W/m 5,2 C 2,3 C 23,3 km/h (4 Bft) 97,38 %
17.04.2017 18:00 7,2 C 86 % 1010,7 hPa 2,0 l/m 19,2 km/h (3 Bft) S-SW 0,00 h 0,051 mm 0,0 UV-I 38 W/m 5,0 C 0,1 C 30,9 km/h (5 Bft) 98,99 %
17.04.2017 19:00 4,8 C 91 % 1011,7 hPa 1,2 l/m 17,8 km/h (3 Bft) W 0,00 h 0,050 mm 0,0 UV-I 11 W/m 3,5 C -2,4 C 26,5 km/h (4 Bft) 97,66 %
17.04.2017 20:00 4,6 C 93 % 1012,6 hPa 0,2 l/m 16,8 km/h (3 Bft) W-SW 0,00 h 0,026 mm 0,0 UV-I 5 W/m 3,5 C -2,2 C 25,6 km/h (4 Bft) 96,69 %
17.04.2017 21:00 4,3 C 92 % 1013,7 hPa 0,0 l/m 17,0 km/h (3 Bft) W-SW 0,00 h 0,025 mm 0,0 UV-I 0 W/m 3,2 C -2,7 C 26,5 km/h (4 Bft) 98,01 %
17.04.2017 22:00 4,5 C 92 % 1014,3 hPa 0,0 l/m 16,5 km/h (3 Bft) W-SW 0,00 h 0,026 mm 0,0 UV-I 0 W/m 3,4 C -2,1 C 24,6 km/h (4 Bft) 99,73 %
17.04.2017 23:00 4,7 C 91 % 1014,8 hPa 0,0 l/m 13,5 km/h (3 Bft) W 0,00 h 0,025 mm 0,0 UV-I 0 W/m 3,3 C -0,4 C 20,4 km/h (4 Bft) 97,27 %
18.04.2017 00:00 4,2 C 90 % 1015,2 hPa 0,0 l/m 11,1 km/h (2 Bft) W 0,00 h 0,000 mm 0,0 UV-I 0 W/m 2,7 C 0,5 C 18,4 km/h (3 Bft) 94,41 %
18.04.2017 01:00 4,3 C 90 % 1015,2 hPa 0,0 l/m 12,7 km/h (3 Bft) W-SW 0,00 h 0,000 mm 0,0 UV-I 0 W/m 2,8 C -0,4 C 19,5 km/h (3 Bft) 98,36 %
18.04.2017 02:00 4,4 C 90 % 1015,0 hPa 0,0 l/m 10,4 km/h (2 Bft) W-SW 0,00 h 0,000 mm 0,0 UV-I 0 W/m 2,8 C 1,2 C 16,3 km/h (3 Bft) 99,63 %
18.04.2017 03:00 4,2 C 90 % 1014,7 hPa 0,0 l/m 12,5 km/h (3 Bft) W-SW 0,00 h 0,000 mm 0,0 UV-I 0 W/m 2,7 C -0,3 C 20,0 km/h (4 Bft) 97,10 %
18.04.2017 04:00 3,5 C 91 % 1014,7 hPa 0,0 l/m 7,1 km/h (2 Bft) W 0,00 h 0,000 mm 0,0 UV-I 0 W/m 2,2 C 2,5 C 13,2 km/h (3 Bft) 97,95 %
18.04.2017 05:00 3,2 C 91 % 1014,8 hPa 0,0 l/m 7,8 km/h (2 Bft) W 0,00 h 0,000 mm 0,0 UV-I 0 W/m 1,9 C 1,7 C 13,5 km/h (3 Bft) 97,63 %
18.04.2017 06:00 3,3 C 92 % 1015,1 hPa 0,0 l/m 4,4 km/h (1 Bft) W-SW 0,00 h 0,000 mm 0,0 UV-I 10 W/m 2,1 C 3,2 C 7,9 km/h (2 Bft) 98,49 %
18.04.2017 07:00 3,4 C 92 % 1015,4 hPa 0,0 l/m 3,5 km/h (1 Bft) W 0,00 h 0,000 mm 0,0 UV-I 26 W/m 2,2 C 3,4 C 6,4 km/h (2 Bft) 93,96 %
18.04.2017 08:00 3,7 C 93 % 1015,5 hPa 0,2 l/m 4,1 km/h (1 Bft) W-SW 0,17 h 0,025 mm 0,5 UV-I 121 W/m 2,7 C 3,4 C 7,1 km/h (2 Bft) 97,63 %
18.04.2017 09:00 3,7 C 90 % 1015,7 hPa 0,2 l/m 5,5 km/h (1 Bft) W 0,37 h 0,051 mm 0,7 UV-I 180 W/m 2,2 C 3,4 C 12,5 km/h (3 Bft) 96,02 %
18.04.2017 10:00 0,6 C 94 % 1016,6 hPa 0,0 l/m 3,3 km/h (1 Bft) W-SW 0,00 h 0,076 mm 0,0 UV-I 33 W/m -0,2 C 0,6 C 5,6 km/h (1 Bft) 96,76 %
18.04.2017 11:00 0,8 C 96 % 1017,4 hPa 0,0 l/m 5,2 km/h (1 Bft) SW 0,00 h 0,000 mm 0,5 UV-I 78 W/m 0,3 C 0,8 C 8,0 km/h (2 Bft) 94,00 %
18.04.2017 12:00 3,1 C 94 % 1017,3 hPa 2,0 l/m 6,1 km/h (2 Bft) W-SW 0,07 h 0,026 mm 1,0 UV-I 262 W/m 2,3 C 2,7 C 10,5 km/h (2 Bft) 97,82 %
18.04.2017 13:00 4,3 C 87 % 1017,1 hPa 3,4 l/m 16,9 km/h (3 Bft) SW 0,40 h 0,101 mm 1,6 UV-I 413 W/m 2,4 C -2,5 C 25,8 km/h (4 Bft) 97,03 %
18.04.2017 14:00 4,6 C 87 % 1017,4 hPa 0,8 l/m 7,4 km/h (2 Bft) W 0,17 h 0,178 mm 1,5 UV-I 319 W/m 2,6 C 3,4 C 15,1 km/h (3 Bft) 97,74 %
18.04.2017 15:00 4,3 C 85 % 1017,7 hPa 0,0 l/m 16,3 km/h (3 Bft) SW 0,00 h 0,153 mm 0,6 UV-I 146 W/m 2,1 C -2,0 C 26,2 km/h (4 Bft) 95,86 %
18.04.2017 16:00 3,7 C 87 % 1018,0 hPa 0,0 l/m 9,2 km/h (2 Bft) N-NW 0,03 h 0,076 mm 0,6 UV-I 122 W/m 1,8 C 1,5 C 16,2 km/h (3 Bft) 95,80 %
18.04.2017 17:00 3,5 C 92 % 1018,6 hPa 0,4 l/m 6,6 km/h (2 Bft) W 0,13 h 0,051 mm 0,0 UV-I 153 W/m 2,3 C 2,8 C 11,1 km/h (2 Bft) 96,39 %
18.04.2017 18:00 4,1 C 88 % 1019,0 hPa 0,0 l/m 9,3 km/h (2 Bft) W 0,13 h 0,050 mm 0,0 UV-I 86 W/m 2,2 C 1,7 C 14,9 km/h (3 Bft) 96,77 %
18.04.2017 19:00 1,6 C 91 % 1019,8 hPa 0,2 l/m 3,2 km/h (1 Bft) N-NO 0,00 h 0,051 mm 0,0 UV-I 10 W/m 0,3 C 1,5 C 7,3 km/h (2 Bft) 96,64 %
18.04.2017 20:00 0,9 C 95 % 1020,4 hPa 0,0 l/m 3,8 km/h (1 Bft) S-SW 0,00 h 0,000 mm 0,0 UV-I 5 W/m 0,3 C 0,9 C 6,4 km/h (2 Bft) 97,05 %
18.04.2017 21:00 1,1 C 96 % 1021,0 hPa 0,0 l/m 4,0 km/h (1 Bft) SW 0,00 h 0,000 mm 0,0 UV-I 0 W/m 0,6 C 0,9 C 6,7 km/h (2 Bft) 97,08 %
18.04.2017 22:00 0,7 C 96 % 1021,1 hPa 0,0 l/m 4,1 km/h (1 Bft) W-SW 0,00 h 0,000 mm 0,0 UV-I 0 W/m 0,2 C 0,7 C 6,1 km/h (2 Bft) 98,50 %
18.04.2017 23:00 1,2 C 96 % 1021,3 hPa 0,0 l/m 4,1 km/h (1 Bft) W 0,00 h 0,000 mm 0,0 UV-I 0 W/m 0,6 C 1,2 C 6,6 km/h (2 Bft) 94,97 %
19.04.2017 00:00 1,6 C 96 % 1021,7 hPa 0,6 l/m 3,1 km/h (1 Bft) NW 0,00 h 0,000 mm 0,0 UV-I 0 W/m 1,1 C 1,6 C 7,3 km/h (2 Bft) 97,81 %
19.04.2017 01:00 1,6 C 93 % 1021,9 hPa 0,2 l/m 1,6 km/h (1 Bft) NW 0,00 h 0,000 mm 0,0 UV-I 0 W/m 0,7 C 1,6 C 4,6 km/h (1 Bft) 97,27 %
19.04.2017 02:00 1,7 C 92 % 1022,0 hPa 0,2 l/m 3,2 km/h (1 Bft) NW 0,00 h 0,000 mm 0,0 UV-I 0 W/m 0,5 C 1,7 C 8,3 km/h (2 Bft) 98,02 %
19.04.2017 03:00 1,6 C 89 % 1022,2 hPa 0,2 l/m 1,8 km/h (1 Bft) NW 0,00 h 0,000 mm 0,0 UV-I 0 W/m -0,0 C 1,6 C 5,5 km/h (1 Bft) 94,82 %
19.04.2017 04:00 1,3 C 90 % 1022,2 hPa 0,0 l/m 2,5 km/h (1 Bft) W 0,00 h 0,000 mm 0,0 UV-I 0 W/m -0,1 C 1,2 C 5,0 km/h (1 Bft) 97,77 %
19.04.2017 05:00 1,2 C 86 % 1022,3 hPa 0,2 l/m 4,1 km/h (1 Bft) NW 0,00 h 0,000 mm 0,0 UV-I 0 W/m -0,9 C 1,1 C 10,2 km/h (2 Bft) 97,17 %
19.04.2017 06:00 0,9 C 82 % 1022,9 hPa 0,0 l/m 3,5 km/h (1 Bft) W-NW 0,00 h 0,000 mm 0,0 UV-I 12 W/m -1,8 C 0,8 C 7,7 km/h (2 Bft) 96,75 %
19.04.2017 07:00 1,1 C 82 % 1023,5 hPa 0,0 l/m 6,8 km/h (2 Bft) W 0,00 h 0,000 mm 0,0 UV-I 34 W/m -1,6 C 0,1 C 12,6 km/h (3 Bft) 94,68 %
19.04.2017 08:00 1,2 C 80 % 1023,9 hPa 0,2 l/m 9,1 km/h (2 Bft) W 0,00 h 0,025 mm 0,0 UV-I 58 W/m -1,8 C -1,3 C 15,1 km/h (3 Bft) 97,99 %
19.04.2017 09:00 1,4 C 77 % 1024,3 hPa 0,4 l/m 10,7 km/h (2 Bft) W 0,00 h 0,026 mm 0,0 UV-I 96 W/m -2,2 C -2,3 C 18,9 km/h (3 Bft) 97,57 %
19.04.2017 10:00 1,7 C 74 % 1024,9 hPa 0,4 l/m 10,3 km/h (2 Bft) W-SW 0,00 h 0,051 mm 0,4 UV-I 124 W/m -2,5 C -1,7 C 17,7 km/h (3 Bft) 94,31 %
19.04.2017 11:00 2,0 C 72 % 1025,4 hPa 0,4 l/m 9,5 km/h (2 Bft) W-SW 0,00 h 0,076 mm 0,6 UV-I 143 W/m -2,5 C -0,7 C 17,5 km/h (3 Bft) 96,57 %
19.04.2017 12:00 2,5 C 69 % 1025,5 hPa 0,4 l/m 7,7 km/h (2 Bft) W-SW 0,00 h 0,076 mm 0,7 UV-I 171 W/m -2,5 C 0,7 C 14,8 km/h (3 Bft) 96,28 %
19.04.2017 13:00 3,2 C 64 % 1025,6 hPa 0,6 l/m 7,9 km/h (2 Bft) W 0,00 h 0,076 mm 1,1 UV-I 256 W/m -3,0 C 1,6 C 18,1 km/h (3 Bft) 96,44 %
19.04.2017 14:00 3,3 C 62 % 1025,6 hPa 0,2 l/m 8,6 km/h (2 Bft) W-NW 0,00 h 0,127 mm 0,9 UV-I 208 W/m -3,2 C 1,3 C 18,2 km/h (3 Bft) 96,68 %
19.04.2017 15:00 3,2 C 61 % 1025,8 hPa 0,2 l/m 7,4 km/h (2 Bft) NW 0,00 h 0,102 mm 0,4 UV-I 112 W/m -3,5 C 1,9 C 17,8 km/h (3 Bft) 96,24 %
19.04.2017 16:00 2,7 C 65 % 1026,2 hPa 0,0 l/m 7,5 km/h (2 Bft) W 0,00 h 0,076 mm 0,0 UV-I 79 W/m -3,2 C 1,4 C 16,0 km/h (3 Bft) 98,46 %
19.04.2017 17:00 2,7 C 65 % 1026,7 hPa 0,0 l/m 7,8 km/h (2 Bft) W 0,00 h 0,051 mm 0,0 UV-I 48 W/m -3,2 C 1,2 C 15,5 km/h (3 Bft) 97,61 %
19.04.2017 18:00 2,6 C 65 % 1027,4 hPa 0,0 l/m 7,4 km/h (2 Bft) W 0,00 h 0,051 mm 0,0 UV-I 25 W/m -3,3 C 1,4 C 14,7 km/h (3 Bft) 95,29 %
19.04.2017 19:00 2,4 C 67 % 1027,9 hPa 0,0 l/m 5,5 km/h (1 Bft) W 0,00 h 0,025 mm 0,0 UV-I 8 W/m -3,1 C 1,8 C 10,8 km/h (2 Bft) 96,01 %
19.04.2017 20:00 1,5 C 79 % 1028,8 hPa 0,0 l/m 9,9 km/h (2 Bft) W-SW 0,00 h 0,025 mm 0,0 UV-I 0 W/m -1,8 C -1,7 C 15,3 km/h (3 Bft) 95,55 %
19.04.2017 21:00 1,0 C 85 % 1029,4 hPa 0,0 l/m 9,6 km/h (2 Bft) SW 0,00 h 0,026 mm 0,0 UV-I 0 W/m -1,2 C -2,0 C 15,3 km/h (3 Bft) 97,05 %
19.04.2017 22:00 1,2 C 83 % 1029,7 hPa 0,0 l/m 6,1 km/h (2 Bft) W 0,00 h 0,025 mm 0,0 UV-I 0 W/m -1,4 C 0,6 C 10,3 km/h (2 Bft) 95,30 %
19.04.2017 23:00 0,8 C 88 % 1029,9 hPa 0,0 l/m 8,4 km/h (2 Bft) W-SW 0,00 h 0,000 mm 0,0 UV-I 0 W/m -1,0 C -1,2 C 13,2 km/h (3 Bft) 98,20 %
20.04.2017 00:00 0,9 C 87 % 1029,9 hPa 0,0 l/m 8,5 km/h (2 Bft) W-SW 0,00 h 0,000 mm 0,0 UV-I 0 W/m -1,0 C -1,3 C 12,9 km/h (3 Bft) 97,90 %
20.04.2017 01:00 0,7 C 88 % 1029,9 hPa 0,0 l/m 10,4 km/h (2 Bft) SW 0,00 h 0,000 mm 0,0 UV-I 0 W/m -1,0 C -3,0 C 15,1 km/h (3 Bft) 99,16 %
20.04.2017 02:00 0,7 C 86 % 1029,6 hPa 0,0 l/m 7,9 km/h (2 Bft) W-SW 0,00 h 0,000 mm 0,0 UV-I 0 W/m -1,5 C -0,8 C 12,3 km/h (3 Bft) 95,62 %
20.04.2017 03:00 0,4 C 84 % 1029,7 hPa 0,0 l/m 6,1 km/h (2 Bft) W-SW 0,00 h 0,000 mm 0,0 UV-I 0 W/m -2,0 C 0,1 C 9,1 km/h (2 Bft) 98,26 %
20.04.2017 04:00 0,0 C 84 % 1030,0 hPa 0,0 l/m 7,1 km/h (2 Bft) W 0,00 h 0,000 mm 0,0 UV-I 0 W/m -2,3 C -0,9 C 11,6 km/h (2 Bft) 97,67 %
20.04.2017 05:00 0,2 C 82 % 1030,2 hPa 0,0 l/m 7,6 km/h (2 Bft) W 0,00 h 0,000 mm 0,0 UV-I 0 W/m -2,4 C -1,0 C 11,8 km/h (2 Bft) 98,95 %
20.04.2017 06:00 0,3 C 81 % 1030,6 hPa 0,0 l/m 6,6 km/h (2 Bft) W 0,00 h 0,000 mm 0,0 UV-I 15 W/m -2,6 C -0,2 C 11,6 km/h (2 Bft) 95,17 %
20.04.2017 07:00 0,7 C 78 % 1031,1 hPa 0,0 l/m 4,5 km/h (1 Bft) W 0,00 h 0,025 mm 0,0 UV-I 73 W/m -2,6 C 0,4 C 9,0 km/h (2 Bft) 98,52 %
20.04.2017 08:00 1,5 C 71 % 1031,5 hPa 0,0 l/m 4,5 km/h (1 Bft) NW 0,00 h 0,026 mm 0,4 UV-I 137 W/m -3,2 C 1,4 C 10,3 km/h (2 Bft) 96,68 %
20.04.2017 09:00 2,2 C 65 % 1031,8 hPa 0,0 l/m 5,9 km/h (2 Bft) W-NW 0,00 h 0,051 mm 0,6 UV-I 210 W/m -3,7 C 1,8 C 13,0 km/h (3 Bft) 97,72 %
20.04.2017 10:00 2,4 C 63 % 1032,1 hPa 0,0 l/m 3,8 km/h (1 Bft) W 0,07 h 0,101 mm 1,1 UV-I 275 W/m -3,9 C 2,4 C 8,1 km/h (2 Bft) 95,50 %
20.04.2017 11:00 3,2 C 58 % 1032,0 hPa 0,0 l/m 6,0 km/h (2 Bft) W-NW 0,07 h 0,102 mm 1,2 UV-I 269 W/m -4,3 C 2,6 C 13,1 km/h (3 Bft) 97,03 %
20.04.2017 12:00 2,3 C 70 % 1032,4 hPa 0,0 l/m 5,4 km/h (1 Bft) N-NW 0,00 h 0,127 mm 0,8 UV-I 145 W/m -2,6 C 1,8 C 11,8 km/h (2 Bft) 95,33 %
20.04.2017 13:00 2,2 C 75 % 1032,3 hPa 0,0 l/m 6,9 km/h (2 Bft) W 0,07 h 0,076 mm 1,4 UV-I 237 W/m -1,7 C 1,1 C 12,0 km/h (2 Bft) 97,18 %
20.04.2017 14:00 3,6 C 70 % 1031,9 hPa 0,0 l/m 10,1 km/h (2 Bft) W 0,47 h 0,102 mm 1,8 UV-I 393 W/m -1,3 C 0,5 C 16,1 km/h (3 Bft) 96,78 %
20.04.2017 15:00 3,6 C 71 % 1031,7 hPa 0,0 l/m 9,4 km/h (2 Bft) SW 0,07 h 0,177 mm 0,9 UV-I 174 W/m -1,2 C 1,0 C 15,4 km/h (3 Bft) 95,47 %
20.04.2017 16:00 3,6 C 77 % 1031,7 hPa 0,0 l/m 8,5 km/h (2 Bft) S 0,00 h 0,102 mm 0,6 UV-I 153 W/m -0,1 C 1,6 C 14,4 km/h (3 Bft) 95,44 %
20.04.2017 17:00 3,3 C 80 % 1031,9 hPa 0,0 l/m 8,1 km/h (2 Bft) S-SW 0,00 h 0,076 mm 0,0 UV-I 90 W/m 0,1 C 1,5 C 14,1 km/h (3 Bft) 96,42 %
20.04.2017 18:00 3,6 C 78 % 1032,0 hPa 0,0 l/m 5,5 km/h (1 Bft) S-SW 0,00 h 0,051 mm 0,0 UV-I 73 W/m 0,2 C 3,4 C 9,5 km/h (2 Bft) 95,14 %
20.04.2017 19:00 3,3 C 79 % 1032,3 hPa 0,0 l/m 8,7 km/h (2 Bft) SW 0,03 h 0,051 mm 0,0 UV-I 17 W/m 0,0 C 1,1 C 13,7 km/h (3 Bft) 94,80 %
20.04.2017 20:00 2,6 C 83 % 1032,8 hPa 0,0 l/m 8,2 km/h (2 Bft) SW 0,00 h 0,025 mm 0,0 UV-I 6 W/m -0,0 C 0,9 C 12,7 km/h (3 Bft) 96,52 %
20.04.2017 21:00 2,2 C 83 % 1033,5 hPa 0,0 l/m 8,2 km/h (2 Bft) S-SW 0,00 h 0,026 mm 0,0 UV-I 0 W/m -0,4 C 0,5 C 13,2 km/h (3 Bft) 96,82 %
20.04.2017 22:00 2,1 C 83 % 1033,5 hPa 0,0 l/m 9,0 km/h (2 Bft) SW 0,00 h 0,025 mm 0,0 UV-I 0 W/m -0,4 C -0,2 C 13,9 km/h (3 Bft) 94,99 %
20.04.2017 23:00 1,9 C 83 % 1033,5 hPa 0,0 l/m 8,2 km/h (2 Bft) SW 0,00 h 0,025 mm 0,0 UV-I 0 W/m -0,7 C 0,3 C 12,5 km/h (3 Bft) 97,70 %
21.04.2017 00:00 1,6 C 85 % 1033,3 hPa 0,0 l/m 7,6 km/h (2 Bft) W-SW 0,00 h 0,000 mm 0,0 UV-I 0 W/m -0,7 C 0,3 C 12,0 km/h (2 Bft) 97,78 %
21.04.2017 01:00 1,7 C 84 % 1033,0 hPa 0,0 l/m 7,7 km/h (2 Bft) S-SW 0,00 h 0,000 mm 0,0 UV-I 0 W/m -0,8 C 0,2 C 12,1 km/h (2 Bft) 99,09 %
21.04.2017 02:00 1,0 C 86 % 1032,6 hPa 0,0 l/m 5,5 km/h (1 Bft) S-SW 0,00 h 0,000 mm 0,0 UV-I 0 W/m -1,0 C 0,8 C 8,7 km/h (2 Bft) 96,42 %
21.04.2017 03:00 0,8 C 86 % 1032,3 hPa 0,0 l/m 5,9 km/h (2 Bft) SW 0,00 h 0,000 mm 0,0 UV-I 0 W/m -1,3 C 0,6 C 8,9 km/h (2 Bft) 97,85 %
21.04.2017 04:00 0,3 C 87 % 1032,0 hPa 0,0 l/m 5,7 km/h (1 Bft) SW 0,00 h 0,000 mm 0,0 UV-I 0 W/m -1,6 C 0,3 C 8,5 km/h (2 Bft) 97,85 %
21.04.2017 05:00 0,0 C 88 % 1031,6 hPa 0,0 l/m 5,4 km/h (1 Bft) SW 0,00 h 0,000 mm 0,0 UV-I 4 W/m -1,7 C 0,0 C 7,5 km/h (2 Bft) 98,23 %
21.04.2017 06:00 -0,2 C 88 % 1031,6 hPa 0,0 l/m 6,6 km/h (2 Bft) SW 0,07 h 0,000 mm 0,0 UV-I 24 W/m -1,9 C -0,7 C 9,6 km/h (2 Bft) 96,58 %
21.04.2017 07:00 0,9 C 85 % 1031,8 hPa 0,0 l/m 9,7 km/h (2 Bft) SW 0,00 h 0,025 mm 0,0 UV-I 92 W/m -1,3 C -2,1 C 14,7 km/h (3 Bft) 96,57 %
21.04.2017 08:00 2,2 C 79 % 1031,9 hPa 0,0 l/m 10,6 km/h (2 Bft) W-SW 0,00 h 0,051 mm 0,6 UV-I 171 W/m -1,1 C -1,4 C 16,2 km/h (3 Bft) 97,55 %
21.04.2017 09:00 4,0 C 71 % 1031,9 hPa 0,0 l/m 10,5 km/h (2 Bft) W-SW 0,80 h 0,076 mm 1,2 UV-I 327 W/m -0,8 C 0,7 C 16,7 km/h (3 Bft) 96,14 %
21.04.2017 10:00 6,3 C 59 % 1031,8 hPa 0,0 l/m 10,4 km/h (2 Bft) W 0,90 h 0,153 mm 2,1 UV-I 510 W/m -1,1 C 3,2 C 18,5 km/h (3 Bft) 95,06 %
21.04.2017 11:00 7,1 C 54 % 1031,4 hPa 0,0 l/m 13,3 km/h (3 Bft) W-SW 0,60 h 0,254 mm 2,6 UV-I 515 W/m -1,5 C 2,6 C 21,0 km/h (4 Bft) 98,30 %
21.04.2017 12:00 8,1 C 50 % 1030,8 hPa 0,0 l/m 13,5 km/h (3 Bft) W-SW 0,47 h 0,279 mm 3,2 UV-I 561 W/m -1,6 C 3,8 C 22,1 km/h (4 Bft) 96,78 %
21.04.2017 13:00 9,2 C 48 % 1030,1 hPa 0,0 l/m 14,3 km/h (3 Bft) W-SW 0,77 h 0,330 mm 3,2 UV-I 509 W/m -1,2 C 4,6 C 23,1 km/h (4 Bft) 96,80 %
21.04.2017 14:00 9,5 C 47 % 1029,4 hPa 0,0 l/m 14,5 km/h (3 Bft) W-SW 1,00 h 0,331 mm 2,5 UV-I 503 W/m -1,3 C 4,9 C 24,4 km/h (4 Bft) 97,18 %
21.04.2017 15:00 9,9 C 46 % 1028,6 hPa 0,0 l/m 12,5 km/h (3 Bft) W 0,57 h 0,304 mm 1,9 UV-I 422 W/m -1,0 C 6,3 C 22,1 km/h (4 Bft) 95,98 %
21.04.2017 16:00 10,2 C 48 % 1027,6 hPa 0,0 l/m 14,2 km/h (3 Bft) W-SW 0,67 h 0,254 mm 1,4 UV-I 363 W/m -0,4 C 5,8 C 22,8 km/h (4 Bft) 97,84 %
21.04.2017 17:00 10,6 C 46 % 1026,9 hPa 0,0 l/m 15,9 km/h (3 Bft) SW 0,90 h 0,254 mm 0,8 UV-I 354 W/m -0,4 C 5,6 C 25,3 km/h (4 Bft) 98,17 %
21.04.2017 18:00 9,9 C 48 % 1026,6 hPa 0,0 l/m 17,4 km/h (3 Bft) SW 1,00 h 0,254 mm 0,3 UV-I 183 W/m -0,5 C 4,1 C 25,5 km/h (4 Bft) 98,82 %
21.04.2017 19:00 8,7 C 52 % 1026,3 hPa 0,0 l/m 12,7 km/h (3 Bft) SW 0,53 h 0,178 mm 0,0 UV-I 42 W/m -0,6 C 4,8 C 19,0 km/h (3 Bft) 96,51 %
21.04.2017 20:00 7,1 C 54 % 1026,1 hPa 0,0 l/m 9,3 km/h (2 Bft) S-SW 0,00 h 0,076 mm 0,0 UV-I 6 W/m -1,6 C 4,9 C 14,0 km/h (3 Bft) 95,97 %
21.04.2017 21:00 6,4 C 55 % 1026,2 hPa 0,0 l/m 10,8 km/h (2 Bft) SW 0,00 h 0,051 mm 0,0 UV-I 0 W/m -2,0 C 3,1 C 16,3 km/h (3 Bft) 95,17 %
21.04.2017 22:00 6,1 C 58 % 1025,8 hPa 0,0 l/m 9,8 km/h (2 Bft) SW 0,00 h 0,051 mm 0,0 UV-I 0 W/m -1,5 C 3,5 C 15,0 km/h (3 Bft) 97,36 %
21.04.2017 23:00 6,2 C 59 % 1025,4 hPa 0,0 l/m 11,8 km/h (2 Bft) SW 0,00 h 0,051 mm 0,0 UV-I 0 W/m -1,1 C 2,2 C 17,6 km/h (3 Bft) 96,17 %
22.04.2017 00:00 6,3 C 61 % 1024,9 hPa 0,0 l/m 13,1 km/h (3 Bft) SW 0,00 h 0,000 mm 0,0 UV-I 0 W/m -0,7 C 1,7 C 20,0 km/h (4 Bft) 95,85 %
22.04.2017 01:00 6,4 C 62 % 1024,5 hPa 0,0 l/m 12,5 km/h (3 Bft) SW 0,00 h 0,051 mm 0,0 UV-I 0 W/m -0,4 C 2,2 C 19,0 km/h (3 Bft) 95,59 %
22.04.2017 02:00 5,8 C 66 % 1024,0 hPa 0,0 l/m 12,4 km/h (3 Bft) SW 0,00 h 0,051 mm 0,0 UV-I 0 W/m -0,1 C 1,5 C 18,3 km/h (3 Bft) 96,96 %
22.04.2017 03:00 6,1 C 66 % 1023,5 hPa 0,0 l/m 7,1 km/h (2 Bft) W-SW 0,00 h 0,050 mm 0,0 UV-I 0 W/m 0,2 C 5,0 C 11,5 km/h (2 Bft) 96,91 %
22.04.2017 04:00 7,1 C 60 % 1022,8 hPa 0,0 l/m 10,4 km/h (2 Bft) W-SW 0,00 h 0,026 mm 0,0 UV-I 0 W/m -0,1 C 4,2 C 15,8 km/h (3 Bft) 95,90 %
22.04.2017 05:00 6,9 C 64 % 1022,0 hPa 0,0 l/m 9,8 km/h (2 Bft) SW 0,00 h 0,051 mm 0,0 UV-I 0 W/m 0,5 C 4,3 C 15,1 km/h (3 Bft) 95,51 %
22.04.2017 06:00 7,0 C 65 % 1021,5 hPa 0,0 l/m 9,4 km/h (2 Bft) SW 0,00 h 0,025 mm 0,0 UV-I 8 W/m 0,8 C 4,4 C 15,0 km/h (3 Bft) 96,50 %
22.04.2017 07:00 7,7 C 60 % 1021,5 hPa 0,0 l/m 7,8 km/h (2 Bft) W-SW 0,00 h 0,025 mm 0,0 UV-I 34 W/m 0,4 C 6,4 C 13,5 km/h (3 Bft) 96,91 %
22.04.2017 08:00 7,9 C 58 % 1021,5 hPa 0,0 l/m 10,1 km/h (2 Bft) W-SW 0,00 h 0,051 mm 0,0 UV-I 45 W/m 0,2 C 5,4 C 16,3 km/h (3 Bft) 96,16 %
22.04.2017 09:00 8,4 C 57 % 1021,2 hPa 0,0 l/m 12,2 km/h (2 Bft) W-SW 0,00 h 0,076 mm 0,4 UV-I 88 W/m 0,4 C 4,7 C 18,4 km/h (3 Bft) 95,80 %
22.04.2017 10:00 9,2 C 56 % 1021,0 hPa 0,0 l/m 10,4 km/h (2 Bft) W-SW 0,00 h 0,102 mm 0,7 UV-I 142 W/m 0,9 C 6,6 C 16,0 km/h (3 Bft) 95,28 %
22.04.2017 11:00 9,9 C 56 % 1020,6 hPa 0,0 l/m 11,5 km/h (2 Bft) W-SW 0,00 h 0,127 mm 0,8 UV-I 147 W/m 1,6 C 6,8 C 17,8 km/h (3 Bft) 96,98 %
22.04.2017 12:00 10,0 C 62 % 1020,1 hPa 0,0 l/m 12,8 km/h (3 Bft) W 0,00 h 0,127 mm 0,9 UV-I 149 W/m 3,1 C 6,2 C 20,1 km/h (4 Bft) 97,53 %
22.04.2017 13:00 9,9 C 66 % 1019,6 hPa 0,0 l/m 15,4 km/h (3 Bft) W 0,00 h 0,127 mm 0,8 UV-I 134 W/m 3,8 C 5,1 C 25,3 km/h (4 Bft) 97,24 %
22.04.2017 14:00 9,9 C 65 % 1018,9 hPa 0,0 l/m 15,8 km/h (3 Bft) W-SW 0,00 h 0,127 mm 0,7 UV-I 132 W/m 3,6 C 4,8 C 25,4 km/h (4 Bft) 94,48 %
22.04.2017 15:00 10,4 C 65 % 1018,1 hPa 0,0 l/m 16,0 km/h (3 Bft) W-SW 0,00 h 0,127 mm 0,8 UV-I 180 W/m 4,1 C 5,2 C 23,7 km/h (4 Bft) 97,71 %
22.04.2017 16:00 10,5 C 68 % 1017,5 hPa 0,0 l/m 22,4 km/h (4 Bft) W-SW 0,00 h 0,152 mm 0,7 UV-I 168 W/m 4,7 C 3,3 C 35,6 km/h (5 Bft) 97,10 %
22.04.2017 17:00 10,0 C 72 % 1017,4 hPa 0,0 l/m 19,1 km/h (3 Bft) W-SW 0,00 h 0,153 mm 0,0 UV-I 96 W/m 5,1 C 3,6 C 29,6 km/h (5 Bft) 96,74 %
22.04.2017 18:00 9,1 C 78 % 1017,5 hPa 0,6 l/m 18,8 km/h (3 Bft) W-SW 0,00 h 0,101 mm 0,0 UV-I 27 W/m 5,6 C 2,6 C 28,3 km/h (4 Bft) 93,91 %
22.04.2017 19:00 7,1 C 90 % 1018,0 hPa 0,6 l/m 10,4 km/h (2 Bft) W 0,00 h 0,051 mm 0,0 UV-I 8 W/m 5,5 C 4,3 C 18,3 km/h (3 Bft) 98,25 %
22.04.2017 20:00 6,3 C 92 % 1018,4 hPa 0,4 l/m 12,0 km/h (2 Bft) W 0,00 h 0,026 mm 0,0 UV-I 0 W/m 5,1 C 2,3 C 18,6 km/h (3 Bft) 96,67 %
22.04.2017 21:00 6,1 C 92 % 1019,0 hPa 0,0 l/m 10,7 km/h (2 Bft) W-SW 0,00 h 0,000 mm 0,0 UV-I 0 W/m 4,9 C 2,9 C 15,7 km/h (3 Bft) 96,88 %
22.04.2017 22:00 6,0 C 91 % 1019,2 hPa 0,2 l/m 12,3 km/h (3 Bft) W-SW 0,00 h 0,000 mm 0,0 UV-I 0 W/m 4,6 C 1,7 C 18,3 km/h (3 Bft) 94,90 %
22.04.2017 23:00 5,4 C 88 % 1019,5 hPa 0,6 l/m 8,3 km/h (2 Bft) W-SW 0,00 h 0,000 mm 0,0 UV-I 0 W/m 3,6 C 3,7 C 13,3 km/h (3 Bft) 98,55 %
23.04.2017 00:00 3,9 C 89 % 1019,6 hPa 2,4 l/m 5,7 km/h (1 Bft) S-SW 0,00 h 0,000 mm 0,0 UV-I 0 W/m 2,2 C 2,8 C 10,5 km/h (2 Bft) 96,71 %
23.04.2017 01:00 4,7 C 92 % 1019,5 hPa 1,0 l/m 12,7 km/h (3 Bft) SW 0,00 h 0,000 mm 0,0 UV-I 0 W/m 3,6 C 0,2 C 20,4 km/h (4 Bft) 97,58 %
23.04.2017 02:00 4,3 C 92 % 1019,4 hPa 2,2 l/m 5,0 km/h (1 Bft) W-NW 0,00 h 0,000 mm 0,0 UV-I 0 W/m 3,0 C 3,9 C 10,1 km/h (2 Bft) 94,78 %
23.04.2017 03:00 3,8 C 92 % 1019,0 hPa 0,0 l/m 15,2 km/h (3 Bft) S-SW 0,00 h 0,000 mm 0,0 UV-I 0 W/m 2,6 C -2,4 C 23,9 km/h (4 Bft) 98,13 %
23.04.2017 04:00 3,7 C 92 % 1019,5 hPa 0,2 l/m 17,4 km/h (3 Bft) SW 0,00 h 0,000 mm 0,0 UV-I 0 W/m 2,5 C -3,6 C 26,0 km/h (4 Bft) 97,30 %
23.04.2017 05:00 3,6 C 93 % 1019,9 hPa 0,0 l/m 13,0 km/h (3 Bft) SW 0,00 h 0,025 mm 0,0 UV-I 4 W/m 2,5 C -1,3 C 19,3 km/h (3 Bft) 97,78 %
23.04.2017 06:00 3,7 C 93 % 1020,6 hPa 0,0 l/m 11,0 km/h (2 Bft) W-SW 0,00 h 0,000 mm 0,0 UV-I 16 W/m 2,6 C -0,1 C 16,6 km/h (3 Bft) 95,36 %
23.04.2017 07:00 4,3 C 90 % 1021,0 hPa 0,0 l/m 8,6 km/h (2 Bft) W-SW 0,00 h 0,026 mm 0,0 UV-I 83 W/m 2,8 C 2,4 C 13,1 km/h (3 Bft) 96,09 %
23.04.2017 08:00 5,2 C 86 % 1021,5 hPa 0,0 l/m 7,8 km/h (2 Bft) SW 0,07 h 0,051 mm 0,5 UV-I 145 W/m 3,0 C 3,8 C 13,6 km/h (3 Bft) 96,01 %
23.04.2017 09:00 5,5 C 84 % 1021,7 hPa 0,0 l/m 8,5 km/h (2 Bft) W 0,13 h 0,076 mm 0,9 UV-I 195 W/m 3,0 C 3,5 C 14,2 km/h (3 Bft) 96,50 %
23.04.2017 10:00 6,5 C 74 % 1021,9 hPa 0,0 l/m 12,9 km/h (3 Bft) W-SW 0,47 h 0,076 mm 1,9 UV-I 483 W/m 2,2 C 2,2 C 20,2 km/h (4 Bft) 95,18 %
23.04.2017 11:00 7,8 C 66 % 1021,8 hPa 0,0 l/m 11,6 km/h (2 Bft) W-SW 0,63 h 0,229 mm 2,3 UV-I 546 W/m 1,9 C 4,5 C 20,5 km/h (4 Bft) 96,96 %
23.04.2017 12:00 8,0 C 68 % 1021,7 hPa 0,0 l/m 7,5 km/h (2 Bft) W-NW 0,67 h 0,279 mm 3,0 UV-I 645 W/m 2,5 C 6,9 C 16,8 km/h (3 Bft) 96,69 %
23.04.2017 13:00 8,2 C 65 % 1021,4 hPa 0,0 l/m 8,7 km/h (2 Bft) W 0,30 h 0,305 mm 2,1 UV-I 452 W/m 1,9 C 6,5 C 18,2 km/h (3 Bft) 97,27 %
23.04.2017 14:00 8,9 C 59 % 1021,2 hPa 0,0 l/m 10,3 km/h (2 Bft) W 0,57 h 0,203 mm 2,5 UV-I 506 W/m 1,3 C 6,6 C 20,2 km/h (4 Bft) 97,16 %
23.04.2017 15:00 9,1 C 56 % 1020,9 hPa 0,0 l/m 12,5 km/h (3 Bft) W-SW 0,57 h 0,279 mm 1,9 UV-I 382 W/m 0,9 C 5,7 C 21,2 km/h (4 Bft) 98,50 %
23.04.2017 16:00 9,3 C 57 % 1020,7 hPa 0,0 l/m 12,0 km/h (2 Bft) W-SW 0,63 h 0,229 mm 1,4 UV-I 434 W/m 1,3 C 6,0 C 21,8 km/h (4 Bft) 95,76 %
23.04.2017 17:00 8,7 C 56 % 1020,9 hPa 0,0 l/m 11,6 km/h (2 Bft) W 0,13 h 0,229 mm 0,6 UV-I 189 W/m 0,3 C 5,5 C 20,2 km/h (4 Bft) 97,88 %
23.04.2017 18:00 8,0 C 55 % 1021,3 hPa 0,2 l/m 8,3 km/h (2 Bft) W 0,07 h 0,152 mm 0,0 UV-I 96 W/m -0,4 C 6,6 C 16,9 km/h (3 Bft) 96,23 %
23.04.2017 19:00 7,3 C 58 % 1021,8 hPa 0,0 l/m 5,7 km/h (1 Bft) W 0,07 h 0,076 mm 0,0 UV-I 30 W/m -0,3 C 6,9 C 12,5 km/h (3 Bft) 97,17 %
23.04.2017 20:00 6,5 C 60 % 1022,3 hPa 0,0 l/m 6,1 km/h (2 Bft) W-SW 0,00 h 0,051 mm 0,0 UV-I 5 W/m -0,6 C 6,3 C 10,9 km/h (2 Bft) 94,96 %
23.04.2017 21:00 6,1 C 64 % 1023,0 hPa 0,0 l/m 6,2 km/h (2 Bft) W-SW 0,00 h 0,025 mm 0,0 UV-I 0 W/m -0,2 C 6,0 C 9,3 km/h (2 Bft) 96,04 %
23.04.2017 22:00 5,4 C 68 % 1023,4 hPa 0,0 l/m 6,8 km/h (2 Bft) SW 0,00 h 0,026 mm 0,0 UV-I 0 W/m 0,0 C 4,9 C 9,9 km/h (2 Bft) 97,01 %
23.04.2017 23:00 5,4 C 68 % 1023,3 hPa 0,0 l/m 5,8 km/h (2 Bft) SW 0,00 h 0,025 mm 0,0 UV-I 0 W/m -0,0 C 5,1 C 8,6 km/h (2 Bft) 98,26 %
Min-Datum _ 21.04.17 21.04.17 17.04.17 - 18.04.17 - - - - - 20.04.17 18.04.17 18.04.17 18.04.17
_ Min-Zeit 06:26 15:10 18:30 - 19:52 - - - - - 11:10 15:24 19:52 00:02
Minimum _ -0,4 C 43 % 1010,3 hPa - 0,0 km/h (0 Bft) - - - - - -5,3 C -6,4 C 0,0 km/h (0 Bft) 15,38 %
Max-Datum _ 22.04.17 18.04.17 20.04.17 18.04.17 17.04.17 - 17.04.17 21.04.17 23.04.17 23.04.17 22.04.17 23.04.17 17.04.17 17.04.17
_ Max-Zeit 15:58 23:34 22:00 13:00 16:06 - 10:00 14:00 12:44 13:00 19:00 15:34 16:08 00:16
Maximum _ 11,0 C 97 % 1033,7 hPa 3,4 l/m 34,3 km/h
W-SW (5 Bft)
- 0,07 h 0,331 mm 4,6 UV-I 1100 W/m 5,9 C 9,6 C 51,5 km/h
W-SW (7 Bft)
100,00 %
Durchschnitt _ 4,6 C 77 % 1023,0 hPa #26,0 l/m 9,8 km/h (2 Bft) W-SW #18:08 h #11,709 mm 1,3 UV-I 181 W/m 0,7 C 1,9 C 16,1 km/h (3 Bft) 96,76 %